sensor_id;sensor_type;location;lat;lon;timestamp;pressure;altitude;pressure_sealevel;temperature;humidity
64668;BME280;51077;42.716;23.344;2023-01-16T00:00:58;95295.59;;;6.16;56.60
64668;BME280;51077;42.716;23.344;2023-01-16T00:03:23;95287.16;;;6.14;56.49
64668;BME280;51077;42.716;23.344;2023-01-16T00:05:49;95285.66;;;6.13;56.89
64668;BME280;51077;42.716;23.344;2023-01-16T00:08:14;95284.16;;;6.12;56.42
64668;BME280;51077;42.716;23.344;2023-01-16T00:10:40;95282.69;;;6.11;56.43
64668;BME280;51077;42.716;23.344;2023-01-16T00:13:05;95281.19;;;6.10;56.54
64668;BME280;51077;42.716;23.344;2023-01-16T00:15:31;95285.88;;;6.09;56.62
64668;BME280;51077;42.716;23.344;2023-01-16T00:17:57;95275.19;;;6.06;56.60
64668;BME280;51077;42.716;23.344;2023-01-16T00:20:23;95280.88;;;6.02;56.51
64668;BME280;51077;42.716;23.344;2023-01-16T00:22:48;95270.16;;;5.98;56.50
64668;BME280;51077;42.716;23.344;2023-01-16T00:25:14;95268.69;;;5.97;56.65
64668;BME280;51077;42.716;23.344;2023-01-16T00:27:39;95269.16;;;5.96;56.44
64668;BME280;51077;42.716;23.344;2023-01-16T00:30:05;95268.41;;;5.95;56.56
64668;BME280;51077;42.716;23.344;2023-01-16T00:32:32;95254.78;;;5.95;56.76
64668;BME280;51077;42.716;23.344;2023-01-16T00:34:57;95255.28;;;5.94;56.81
64668;BME280;51077;42.716;23.344;2023-01-16T00:37:23;95253.03;;;5.92;56.61
64668;BME280;51077;42.716;23.344;2023-01-16T00:39:48;95251.50;;;5.91;56.46
64668;BME280;51077;42.716;23.344;2023-01-16T00:42:13;95255.44;;;5.90;56.60
64668;BME280;51077;42.716;23.344;2023-01-16T00:44:39;95246.53;;;5.90;56.41
64668;BME280;51077;42.716;23.344;2023-01-16T00:47:04;95247.78;;;5.89;56.73
64668;BME280;51077;42.716;23.344;2023-01-16T00:49:30;95244.03;;;5.86;56.59
64668;BME280;51077;42.716;23.344;2023-01-16T00:51:56;95253.44;;;5.85;56.29
64668;BME280;51077;42.716;23.344;2023-01-16T00:54:21;95253.91;;;5.84;56.67
64668;BME280;51077;42.716;23.344;2023-01-16T00:56:47;95246.22;;;5.82;56.60
64668;BME280;51077;42.716;23.344;2023-01-16T00:59:13;95246.22;;;5.82;56.54
64668;BME280;51077;42.716;23.344;2023-01-16T01:01:38;95240.03;;;5.82;56.45
64668;BME280;51077;42.716;23.344;2023-01-16T01:04:04;95243.22;;;5.80;56.77
64668;BME280;51077;42.716;23.344;2023-01-16T01:06:30;95240.22;;;5.78;56.87
64668;BME280;51077;42.716;23.344;2023-01-16T01:08:55;95241.47;;;5.77;56.72
64668;BME280;51077;42.716;23.344;2023-01-16T01:11:21;95238.75;;;5.77;56.65
64668;BME280;51077;42.716;23.344;2023-01-16T01:13:47;95238.00;;;5.76;56.84
64668;BME280;51077;42.716;23.344;2023-01-16T01:16:13;95240.22;;;5.78;56.79
64668;BME280;51077;42.716;23.344;2023-01-16T01:18:39;95240.94;;;5.73;56.64
64668;BME280;51077;42.716;23.344;2023-01-16T01:21:05;95242.16;;;5.72;57.02
64668;BME280;51077;42.716;23.344;2023-01-16T01:23:31;95233.72;;;5.70;56.80
64668;BME280;51077;42.716;23.344;2023-01-16T01:25:57;95222.06;;;5.69;56.48
64668;BME280;51077;42.716;23.344;2023-01-16T01:28:23;95228.00;;;5.68;56.53
64668;BME280;51077;42.716;23.344;2023-01-16T01:30:48;95225.28;;;5.68;56.75
64668;BME280;51077;42.716;23.344;2023-01-16T01:33:14;95230.72;;;5.68;56.78
64668;BME280;51077;42.716;23.344;2023-01-16T01:35:39;95215.34;;;5.65;56.65
64668;BME280;51077;42.716;23.344;2023-01-16T01:38:05;95216.09;;;5.65;56.84
64668;BME280;51077;42.716;23.344;2023-01-16T01:40:32;95216.09;;;5.65;56.72
64668;BME280;51077;42.716;23.344;2023-01-16T01:42:58;95202.47;;;5.65;56.52
64668;BME280;51077;42.716;23.344;2023-01-16T01:45:24;95201.72;;;5.65;56.62
64668;BME280;51077;42.716;23.344;2023-01-16T01:50:41;95202.44;;;5.60;56.60
64668;BME280;51077;42.716;23.344;2023-01-16T01:53:17;95205.91;;;5.60;56.69
64668;BME280;51077;42.716;23.344;2023-01-16T01:55:45;95207.13;;;5.59;56.66
64668;BME280;51077;42.716;23.344;2023-01-16T01:58:13;95199.44;;;5.58;56.74
64668;BME280;51077;42.716;23.344;2023-01-16T02:00:44;95207.63;;;5.58;56.65
64668;BME280;51077;42.716;23.344;2023-01-16T02:03:15;95207.34;;;5.55;56.92
64668;BME280;51077;42.716;23.344;2023-01-16T02:05:45;95199.16;;;5.55;56.79
64668;BME280;51077;42.716;23.344;2023-01-16T02:08:17;95192.25;;;5.54;56.93
64668;BME280;51077;42.716;23.344;2023-01-16T02:10:59;95191.00;;;5.55;56.92
64668;BME280;51077;42.716;23.344;2023-01-16T02:13:28;95194.22;;;5.54;56.94
64668;BME280;51077;42.716;23.344;2023-01-16T02:15:55;95197.69;;;5.54;56.75
64668;BME280;51077;42.716;23.344;2023-01-16T02:18:40;95188.03;;;5.53;56.56
64668;BME280;51077;42.716;23.344;2023-01-16T02:41:36;95169.59;;;5.43;56.40
64668;BME280;51077;42.716;23.344;2023-01-16T02:46:56;95171.78;;;5.39;56.16
64668;BME280;51077;42.716;23.344;2023-01-16T02:49:38;95157.44;;;5.38;56.17
64668;BME280;51077;42.716;23.344;2023-01-16T02:54:39;95155.66;;;5.35;56.38
64668;BME280;51077;42.716;23.344;2023-01-16T02:57:11;95152.94;;;5.35;56.35
64668;BME280;51077;42.716;23.344;2023-01-16T02:59:40;95153.41;;;5.34;55.99
64668;BME280;51077;42.716;23.344;2023-01-16T03:02:06;95146.50;;;5.33;56.20
64668;BME280;51077;42.716;23.344;2023-01-16T03:04:47;95143.78;;;5.33;55.86
64668;BME280;51077;42.716;23.344;2023-01-16T03:07:42;95152.69;;;5.33;55.99
64668;BME280;51077;42.716;23.344;2023-01-16T03:12:45;95154.88;;;5.29;55.68
64668;BME280;51077;42.716;23.344;2023-01-16T03:18:33;95136.78;;;5.26;56.08
64668;BME280;51077;42.716;23.344;2023-01-16T03:24:41;95132.03;;;5.21;55.64
64668;BME280;51077;42.716;23.344;2023-01-16T03:27:15;95124.81;;;5.18;55.91
64668;BME280;51077;42.716;23.344;2023-01-16T03:29:53;95131.03;;;5.18;55.59
64668;BME280;51077;42.716;23.344;2023-01-16T03:35:09;95117.88;;;5.17;55.61
64668;BME280;51077;42.716;23.344;2023-01-16T03:37:49;95104.47;;;5.13;55.60
64668;BME280;51077;42.716;23.344;2023-01-16T03:40:20;95109.66;;;5.11;55.81
64668;BME280;51077;42.716;23.344;2023-01-16T03:42:58;95091.38;;;5.12;55.59
64668;BME280;51077;42.716;23.344;2023-01-16T03:48:17;95086.63;;;5.07;55.64
64668;BME280;51077;42.716;23.344;2023-01-16T03:50:53;95090.31;;;5.03;55.48
64668;BME280;51077;42.716;23.344;2023-01-16T03:53:24;95086.84;;;5.03;55.52
64668;BME280;51077;42.716;23.344;2023-01-16T03:58:30;95080.38;;;5.00;55.68
64668;BME280;51077;42.716;23.344;2023-01-16T04:03:39;95071.22;;;4.98;55.60
64668;BME280;51077;42.716;23.344;2023-01-16T04:06:14;95084.81;;;4.98;55.55
64668;BME280;51077;42.716;23.344;2023-01-16T04:08:43;95091.94;;;4.95;55.65
64668;BME280;51077;42.716;23.344;2023-01-16T04:11:13;95082.28;;;4.94;55.50
64668;BME280;51077;42.716;23.344;2023-01-16T04:13:41;95082.78;;;4.93;55.61
64668;BME280;51077;42.716;23.344;2023-01-16T04:16:11;95089.22;;;4.95;55.27
64668;BME280;51077;42.716;23.344;2023-01-16T04:18:40;95083.25;;;4.91;55.67
64668;BME280;51077;42.716;23.344;2023-01-16T04:21:06;95077.56;;;4.89;55.45
64668;BME280;51077;42.716;23.344;2023-01-16T04:23:33;95074.09;;;4.89;55.54
64668;BME280;51077;42.716;23.344;2023-01-16T04:25:59;95077.25;;;4.87;55.30
64668;BME280;51077;42.716;23.344;2023-01-16T04:28:24;95069.09;;;4.87;55.34
64668;BME280;51077;42.716;23.344;2023-01-16T04:30:50;95066.13;;;4.85;55.13
64668;BME280;51077;42.716;23.344;2023-01-16T04:33:15;95068.09;;;4.85;55.43
64668;BME280;51077;42.716;23.344;2023-01-16T04:35:41;95070.81;;;4.85;55.37
64668;BME280;51077;42.716;23.344;2023-01-16T04:38:06;95070.09;;;4.84;55.25
64668;BME280;51077;42.716;23.344;2023-01-16T04:40:31;95064.66;;;4.84;55.37
64668;BME280;51077;42.716;23.344;2023-01-16T04:42:57;95059.94;;;4.85;55.29
64668;BME280;51077;42.716;23.344;2023-01-16T04:45:22;95054.97;;;4.83;55.38
64668;BME280;51077;42.716;23.344;2023-01-16T04:47:49;95053.97;;;4.81;55.24
64668;BME280;51077;42.716;23.344;2023-01-16T04:50:15;95056.22;;;4.82;55.04
64668;BME280;51077;42.716;23.344;2023-01-16T04:52:41;95050.50;;;4.80;55.19
64668;BME280;51077;42.716;23.344;2023-01-16T04:55:07;95058.66;;;4.80;55.09
64668;BME280;51077;42.716;23.344;2023-01-16T04:57:33;95052.50;;;4.79;55.42
64668;BME280;51077;42.716;23.344;2023-01-16T04:59:58;95045.53;;;4.78;55.45
64668;BME280;51077;42.716;23.344;2023-01-16T05:02:24;95057.19;;;4.79;54.91
64668;BME280;51077;42.716;23.344;2023-01-16T05:04:49;95045.28;;;4.76;54.98
64668;BME280;51077;42.716;23.344;2023-01-16T05:07:15;95053.94;;;4.75;55.18
64668;BME280;51077;42.716;23.344;2023-01-16T05:09:40;95058.34;;;4.72;55.07
64668;BME280;51077;42.716;23.344;2023-01-16T05:12:06;95048.19;;;4.73;55.17
64668;BME280;51077;42.716;23.344;2023-01-16T05:14:31;95050.66;;;4.71;55.05
64668;BME280;51077;42.716;23.344;2023-01-16T05:16:56;95054.59;;;4.70;54.90
64668;BME280;51077;42.716;23.344;2023-01-16T05:19:22;95042.97;;;4.69;55.09
64668;BME280;51077;42.716;23.344;2023-01-16T05:21:47;95032.09;;;4.69;55.21
64668;BME280;51077;42.716;23.344;2023-01-16T05:24:13;95035.09;;;4.71;55.29
64668;BME280;51077;42.716;23.344;2023-01-16T05:26:38;95028.19;;;4.70;54.99
64668;BME280;51077;42.716;23.344;2023-01-16T05:29:03;95032.84;;;4.70;55.02
64668;BME280;51077;42.716;23.344;2023-01-16T05:31:29;95038.28;;;4.70;55.11
64668;BME280;51077;42.716;23.344;2023-01-16T05:33:54;95026.19;;;4.71;55.01
64668;BME280;51077;42.716;23.344;2023-01-16T05:36:20;95020.75;;;4.71;55.01
64668;BME280;51077;42.716;23.344;2023-01-16T05:38:45;95014.84;;;4.72;55.00
64668;BME280;51077;42.716;23.344;2023-01-16T05:41:11;95015.59;;;4.73;55.06
64668;BME280;51077;42.716;23.344;2023-01-16T05:43:37;95012.13;;;4.72;55.14
64668;BME280;51077;42.716;23.344;2023-01-16T05:46:02;95013.34;;;4.71;54.89
64668;BME280;51077;42.716;23.344;2023-01-16T05:48:28;95015.09;;;4.74;55.10
64668;BME280;51077;42.716;23.344;2023-01-16T05:50:56;95007.91;;;4.71;55.06
64668;BME280;51077;42.716;23.344;2023-01-16T05:53:21;95017.56;;;4.72;55.05
64668;BME280;51077;42.716;23.344;2023-01-16T05:55:47;95018.31;;;4.73;55.10
64668;BME280;51077;42.716;23.344;2023-01-16T05:58:16;95018.59;;;4.75;55.11
64668;BME280;51077;42.716;23.344;2023-01-16T06:00:42;95011.16;;;4.75;55.15
64668;BME280;51077;42.716;23.344;2023-01-16T06:03:08;95011.63;;;4.74;55.28
64668;BME280;51077;42.716;23.344;2023-01-16T06:05:34;95017.34;;;4.76;55.44
64668;BME280;51077;42.716;23.344;2023-01-16T06:08:00;95005.25;;;4.77;55.26
64668;BME280;51077;42.716;23.344;2023-01-16T06:10:25;95001.03;;;4.76;55.35
64668;BME280;51077;42.716;23.344;2023-01-16T06:12:51;94999.81;;;4.77;55.41
64668;BME280;51077;42.716;23.344;2023-01-16T06:15:17;94997.63;;;4.81;55.45
64668;BME280;51077;42.716;23.344;2023-01-16T06:17:42;94996.91;;;4.86;55.26
64668;BME280;51077;42.716;23.344;2023-01-16T06:20:09;94990.53;;;4.89;55.41
64668;BME280;51077;42.716;23.344;2023-01-16T06:22:35;94989.81;;;4.94;55.02
64668;BME280;51077;42.716;23.344;2023-01-16T06:25:00;94994.56;;;4.99;55.13
64668;BME280;51077;42.716;23.344;2023-01-16T06:27:26;95003.00;;;5.01;55.27
64668;BME280;51077;42.716;23.344;2023-01-16T06:29:51;95005.75;;;5.07;55.13
64668;BME280;51077;42.716;23.344;2023-01-16T06:32:16;95014.94;;;5.10;55.21
64668;BME280;51077;42.716;23.344;2023-01-16T06:34:43;95013.00;;;5.16;55.19
64668;BME280;51077;42.716;23.344;2023-01-16T06:37:08;95024.44;;;5.20;55.00
64668;BME280;51077;42.716;23.344;2023-01-16T06:39:34;95020.25;;;5.24;55.16
64668;BME280;51077;42.716;23.344;2023-01-16T06:41:59;95028.47;;;5.30;54.80
64668;BME280;51077;42.716;23.344;2023-01-16T06:44:25;95030.47;;;5.35;54.88
64668;BME280;51077;42.716;23.344;2023-01-16T06:46:51;95021.63;;;5.40;54.94
64668;BME280;51077;42.716;23.344;2023-01-16T06:49:16;95011.28;;;5.44;55.03
64668;BME280;51077;42.716;23.344;2023-01-16T06:51:41;95002.38;;;5.49;54.70
64668;BME280;51077;42.716;23.344;2023-01-16T06:54:09;95000.72;;;5.58;54.47
64668;BME280;51077;42.716;23.344;2023-01-16T06:56:34;94988.38;;;5.62;54.75
64668;BME280;51077;42.716;23.344;2023-01-16T06:58:59;94995.81;;;5.67;54.61
64668;BME280;51077;42.716;23.344;2023-01-16T07:01:25;95015.19;;;5.75;54.37
64668;BME280;51077;42.716;23.344;2023-01-16T07:03:50;95011.00;;;5.79;54.81
64668;BME280;51077;42.716;23.344;2023-01-16T07:06:16;95010.28;;;5.85;54.66
64668;BME280;51077;42.716;23.344;2023-01-16T07:08:42;94993.97;;;5.90;54.67
64668;BME280;51077;42.716;23.344;2023-01-16T07:11:08;94994.75;;;5.96;54.17
64668;BME280;51077;42.716;23.344;2023-01-16T07:13:33;94996.50;;;5.99;54.26
64668;BME280;51077;42.716;23.344;2023-01-16T07:15:59;95001.97;;;6.05;54.48
64668;BME280;51077;42.716;23.344;2023-01-16T07:18:43;94994.84;;;6.13;54.26
64668;BME280;51077;42.716;23.344;2023-01-16T07:21:28;94990.19;;;6.19;54.40
64668;BME280;51077;42.716;23.344;2023-01-16T07:24:17;94993.94;;;6.27;54.01
64668;BME280;51077;42.716;23.344;2023-01-16T07:26:47;94997.91;;;6.32;53.92
64668;BME280;51077;42.716;23.344;2023-01-16T07:29:14;94992.47;;;6.38;53.97
64668;BME280;51077;42.716;23.344;2023-01-16T07:31:40;94987.53;;;6.47;53.71
64668;BME280;51077;42.716;23.344;2023-01-16T07:34:05;94992.25;;;6.52;53.72
64668;BME280;51077;42.716;23.344;2023-01-16T07:36:31;95000.94;;;6.57;53.70
64668;BME280;51077;42.716;23.344;2023-01-16T07:38:58;94995.03;;;6.58;53.50
64668;BME280;51077;42.716;23.344;2023-01-16T07:41:24;94983.63;;;6.60;53.64
64668;BME280;51077;42.716;23.344;2023-01-16T07:43:50;94981.13;;;6.62;53.80
64668;BME280;51077;42.716;23.344;2023-01-16T07:46:15;94987.09;;;6.66;53.68
64668;BME280;51077;42.716;23.344;2023-01-16T07:48:41;94976.69;;;6.70;53.61
64668;BME280;51077;42.716;23.344;2023-01-16T07:51:06;94982.66;;;6.74;53.81
64668;BME280;51077;42.716;23.344;2023-01-16T07:53:32;94975.22;;;6.80;53.64
64668;BME280;51077;42.716;23.344;2023-01-16T07:56:00;94961.59;;;6.86;53.55
64668;BME280;51077;42.716;23.344;2023-01-16T07:58:26;94972.03;;;6.93;53.46
64668;BME280;51077;42.716;23.344;2023-01-16T08:00:53;94949.94;;;7.02;53.05
64668;BME280;51077;42.716;23.344;2023-01-16T08:03:19;94945.72;;;7.12;53.06
64668;BME280;51077;42.716;23.344;2023-01-16T08:05:44;94938.28;;;7.24;53.13
64668;BME280;51077;42.716;23.344;2023-01-16T08:08:10;94944.97;;;7.34;53.25
64668;BME280;51077;42.716;23.344;2023-01-16T08:10:37;94945.44;;;7.44;52.55
64668;BME280;51077;42.716;23.344;2023-01-16T08:13:02;94951.41;;;7.53;53.00
64668;BME280;51077;42.716;23.344;2023-01-16T08:15:28;94954.13;;;7.59;53.02
64668;BME280;51077;42.716;23.344;2023-01-16T08:17:54;94959.84;;;7.67;52.73
64668;BME280;51077;42.716;23.344;2023-01-16T08:20:19;94962.78;;;7.74;52.32
64668;BME280;51077;42.716;23.344;2023-01-16T08:22:46;94969.72;;;7.87;52.08
64668;BME280;51077;42.716;23.344;2023-01-16T08:25:13;94967.44;;;8.02;52.01
64668;BME280;51077;42.716;23.344;2023-01-16T08:27:39;94967.13;;;8.17;51.83
64668;BME280;51077;42.716;23.344;2023-01-16T08:30:06;94963.59;;;8.33;51.32
64668;BME280;51077;42.716;23.344;2023-01-16T08:32:32;94964.78;;;8.49;51.32
64668;BME280;51077;42.716;23.344;2023-01-16T08:34:57;94950.75;;;8.69;50.83
64668;BME280;51077;42.716;23.344;2023-01-16T08:37:23;94940.69;;;8.83;50.58
64668;BME280;51077;42.716;23.344;2023-01-16T08:39:48;94934.41;;;8.94;50.48
64668;BME280;51077;42.716;23.344;2023-01-16T08:42:13;94930.63;;;9.02;50.41
64668;BME280;51077;42.716;23.344;2023-01-16T08:44:57;94921.84;;;9.10;50.06
64668;BME280;51077;42.716;23.344;2023-01-16T08:47:41;94925.00;;;9.19;50.06
64668;BME280;51077;42.716;23.344;2023-01-16T08:50:26;94918.97;;;9.26;49.99
64668;BME280;51077;42.716;23.344;2023-01-16T08:53:10;94924.16;;;9.30;49.94
64668;BME280;51077;42.716;23.344;2023-01-16T08:55:35;94923.16;;;9.33;49.88
64668;BME280;51077;42.716;23.344;2023-01-16T08:58:01;94922.63;;;9.35;49.86
64668;BME280;51077;42.716;23.344;2023-01-16T09:00:27;94928.84;;;9.35;49.82
64668;BME280;51077;42.716;23.344;2023-01-16T09:02:53;94915.16;;;9.35;49.70
64668;BME280;51077;42.716;23.344;2023-01-16T09:05:21;94917.38;;;9.37;50.01
64668;BME280;51077;42.716;23.344;2023-01-16T09:07:47;94908.19;;;9.34;49.95
64668;BME280;51077;42.716;23.344;2023-01-16T09:10:13;94909.66;;;9.35;50.01
64668;BME280;51077;42.716;23.344;2023-01-16T09:12:39;94901.22;;;9.33;50.08
64668;BME280;51077;42.716;23.344;2023-01-16T09:15:23;94894.28;;;9.32;50.20
64668;BME280;51077;42.716;23.344;2023-01-16T09:17:49;94895.75;;;9.33;49.89
64668;BME280;51077;42.716;23.344;2023-01-16T09:20:15;94895.03;;;9.32;50.17
64668;BME280;51077;42.716;23.344;2023-01-16T09:22:40;94891.53;;;9.32;50.08
64668;BME280;51077;42.716;23.344;2023-01-16T09:25:06;94876.81;;;9.35;50.13
64668;BME280;51077;42.716;23.344;2023-01-16T09:27:32;94878.31;;;9.36;50.21
64668;BME280;51077;42.716;23.344;2023-01-16T09:29:57;94869.28;;;9.41;50.11
64668;BME280;51077;42.716;23.344;2023-01-16T09:32:24;94865.75;;;9.46;49.86
64668;BME280;51077;42.716;23.344;2023-01-16T09:34:49;94865.19;;;9.53;50.08
64668;BME280;51077;42.716;23.344;2023-01-16T09:37:15;94856.91;;;9.59;49.99
64668;BME280;51077;42.716;23.344;2023-01-16T09:39:41;94856.00;;;9.70;49.82
64668;BME280;51077;42.716;23.344;2023-01-16T09:45:04;94847.69;;;10.00;49.19
64668;BME280;51077;42.716;23.344;2023-01-16T09:47:31;94853.78;;;10.30;48.55
64668;BME280;51077;42.716;23.344;2023-01-16T09:50:06;94859.34;;;10.63;48.28
64668;BME280;51077;42.716;23.344;2023-01-16T09:52:36;94844.72;;;10.87;47.90
64668;BME280;51077;42.716;23.344;2023-01-16T09:58:24;94836.56;;;11.26;47.26
64668;BME280;51077;42.716;23.344;2023-01-16T10:01:14;94835.84;;;11.39;46.73
64668;BME280;51077;42.716;23.344;2023-01-16T10:03:41;94825.50;;;11.45;46.80
64668;BME280;51077;42.716;23.344;2023-01-16T10:09:01;94824.63;;;11.64;46.46
64668;BME280;51077;42.716;23.344;2023-01-16T10:30:30;94770.47;;;11.98;45.63
64668;BME280;51077;42.716;23.344;2023-01-16T10:35:40;94764.69;;;11.89;45.62
64668;BME280;51077;42.716;23.344;2023-01-16T10:41:29;94756.09;;;11.79;45.96
64668;BME280;51077;42.716;23.344;2023-01-16T10:44:56;94751.44;;;11.74;46.04
64668;BME280;51077;42.716;23.344;2023-01-16T10:47:42;94741.22;;;11.61;45.90
64668;BME280;51077;42.716;23.344;2023-01-16T10:50:26;94733.63;;;11.54;45.95
64668;BME280;51077;42.716;23.344;2023-01-16T10:52:53;94723.47;;;11.49;46.27
64668;BME280;51077;42.716;23.344;2023-01-16T10:55:18;94732.56;;;11.44;46.34
64668;BME280;51077;42.716;23.344;2023-01-16T10:57:53;94701.41;;;11.41;46.15
64668;BME280;51077;42.716;23.344;2023-01-16T11:00:41;94706.69;;;11.39;46.26
64668;BME280;51077;42.716;23.344;2023-01-16T11:03:17;94692.75;;;11.37;46.29
64668;BME280;51077;42.716;23.344;2023-01-16T11:05:44;94681.78;;;11.37;46.59
64668;BME280;51077;42.716;23.344;2023-01-16T11:08:12;94682.50;;;11.38;46.61
64668;BME280;51077;42.716;23.344;2023-01-16T11:10:39;94671.28;;;11.36;46.50
64668;BME280;51077;42.716;23.344;2023-01-16T11:13:13;94673.13;;;11.33;46.61
64668;BME280;51077;42.716;23.344;2023-01-16T11:16:00;94668.66;;;11.30;46.80
64668;BME280;51077;42.716;23.344;2023-01-16T11:18:45;94658.72;;;11.27;46.57
64668;BME280;51077;42.716;23.344;2023-01-16T11:21:17;94661.06;;;11.23;47.02
64668;BME280;51077;42.716;23.344;2023-01-16T11:23:48;94666.56;;;11.23;46.98
64668;BME280;51077;42.716;23.344;2023-01-16T11:26:15;94656.84;;;11.22;47.17
64668;BME280;51077;42.716;23.344;2023-01-16T11:28:45;94666.56;;;11.23;47.04
64668;BME280;51077;42.716;23.344;2023-01-16T11:31:26;94670.81;;;11.24;47.04
64668;BME280;51077;42.716;23.344;2023-01-16T11:34:11;94673.56;;;11.71;46.25
64668;BME280;51077;42.716;23.344;2023-01-16T11:36:40;94661.66;;;12.31;45.24
64668;BME280;51077;42.716;23.344;2023-01-16T11:39:06;94659.38;;;13.00;44.31
64668;BME280;51077;42.716;23.344;2023-01-16T11:41:45;94654.00;;;13.67;43.36
64668;BME280;51077;42.716;23.344;2023-01-16T11:47:14;94636.44;;;14.62;41.48
64668;BME280;51077;42.716;23.344;2023-01-16T11:49:45;94636.03;;;14.96;40.99
64668;BME280;51077;42.716;23.344;2023-01-16T11:52:16;94623.19;;;15.31;40.19
64668;BME280;51077;42.716;23.344;2023-01-16T11:54:53;94626.94;;;15.67;39.66
64668;BME280;51077;42.716;23.344;2023-01-16T11:57:26;94633.97;;;15.93;39.44
64668;BME280;51077;42.716;23.344;2023-01-16T12:00:08;94623.59;;;16.01;39.07
64668;BME280;51077;42.716;23.344;2023-01-16T12:15:12;94586.16;;;16.25;38.15
64668;BME280;51077;42.716;23.344;2023-01-16T12:23:41;94581.63;;;15.54;38.91
64668;BME280;51077;42.716;23.344;2023-01-16T12:29:17;94570.56;;;15.14;39.17
64668;BME280;51077;42.716;23.344;2023-01-16T12:34:40;94561.50;;;14.73;39.72
64668;BME280;51077;42.716;23.344;2023-01-16T12:45:55;94543.53;;;13.80;40.44
64668;BME280;51077;42.716;23.344;2023-01-16T12:51:12;94527.63;;;13.27;40.78
64668;BME280;51077;42.716;23.344;2023-01-16T12:59:41;94525.63;;;12.48;42.15
64668;BME280;51077;42.716;23.344;2023-01-16T13:04:42;94509.63;;;12.10;42.73
64668;BME280;51077;42.716;23.344;2023-01-16T13:07:15;94510.28;;;11.95;43.03
64668;BME280;51077;42.716;23.344;2023-01-16T13:09:49;94510.66;;;11.78;43.39
64668;BME280;51077;42.716;23.344;2023-01-16T13:12:25;94494.06;;;11.63;43.70
64668;BME280;51077;42.716;23.344;2023-01-16T13:15:21;94488.44;;;11.48;44.16
64668;BME280;51077;42.716;23.344;2023-01-16T13:18:00;94482.47;;;11.36;44.32
64668;BME280;51077;42.716;23.344;2023-01-16T13:20:29;94487.50;;;11.24;44.58
64668;BME280;51077;42.716;23.344;2023-01-16T13:23:06;94476.75;;;11.13;44.91
64668;BME280;51077;42.716;23.344;2023-01-16T13:25:40;94470.81;;;11.01;45.17
64668;BME280;51077;42.716;23.344;2023-01-16T13:30:54;94480.59;;;10.76;45.57
64668;BME280;51077;42.716;23.344;2023-01-16T13:33:22;94480.50;;;10.68;45.73
64668;BME280;51077;42.716;23.344;2023-01-16T13:41:55;94464.94;;;10.23;46.66
64668;BME280;51077;42.716;23.344;2023-01-16T13:44:35;94474.09;;;10.13;46.95
64668;BME280;51077;42.716;23.344;2023-01-16T13:47:32;94478.31;;;10.00;47.05
64668;BME280;51077;42.716;23.344;2023-01-16T13:50:14;94474.22;;;9.94;47.27
64668;BME280;51077;42.716;23.344;2023-01-16T13:52:43;94465.16;;;9.86;47.47
64668;BME280;51077;42.716;23.344;2023-01-16T13:57:54;94458.69;;;9.70;47.99
64668;BME280;51077;42.716;23.344;2023-01-16T14:00:20;94440.91;;;9.63;48.14
64668;BME280;51077;42.716;23.344;2023-01-16T14:03:16;94444.97;;;9.56;48.35
64668;BME280;51077;42.716;23.344;2023-01-16T14:05:52;94461.28;;;9.49;48.42
64668;BME280;51077;42.716;23.344;2023-01-16T14:08:25;94460.66;;;9.43;48.77
64668;BME280;51077;42.716;23.344;2023-01-16T14:13:43;94463.56;;;9.31;48.93
64668;BME280;51077;42.716;23.344;2023-01-16T14:24:14;94474.38;;;9.11;49.41
64668;BME280;51077;42.716;23.344;2023-01-16T14:26:51;94457.50;;;9.06;49.46
64668;BME280;51077;42.716;23.344;2023-01-16T14:32:00;94456.72;;;8.93;49.85
64668;BME280;51077;42.716;23.344;2023-01-16T14:34:32;94477.44;;;8.88;49.79
64668;BME280;51077;42.716;23.344;2023-01-16T14:37:04;94470.78;;;8.84;50.22
64668;BME280;51077;42.716;23.344;2023-01-16T14:39:51;94447.50;;;8.77;50.23
64668;BME280;51077;42.716;23.344;2023-01-16T14:42:19;94439.38;;;8.71;50.71
64668;BME280;51077;42.716;23.344;2023-01-16T14:50:58;94447.38;;;8.50;50.85
64668;BME280;51077;42.716;23.344;2023-01-16T14:53:44;94447.97;;;8.43;51.10
64668;BME280;51077;42.716;23.344;2023-01-16T14:56:32;94450.78;;;8.38;51.18
64668;BME280;51077;42.716;23.344;2023-01-16T14:59:05;94450.31;;;8.34;51.32
64668;BME280;51077;42.716;23.344;2023-01-16T15:01:40;94450.59;;;8.30;51.46
64668;BME280;51077;42.716;23.344;2023-01-16T15:04:30;94440.47;;;8.25;51.53
64668;BME280;51077;42.716;23.344;2023-01-16T15:07:00;94444.50;;;8.18;52.10
64668;BME280;51077;42.716;23.344;2023-01-16T15:09:28;94431.91;;;8.15;52.11
64668;BME280;51077;42.716;23.344;2023-01-16T15:12:08;94433.66;;;8.13;52.17
64668;BME280;51077;42.716;23.344;2023-01-16T15:14:35;94431.22;;;8.09;52.33
64668;BME280;51077;42.716;23.344;2023-01-16T15:22:58;94446.78;;;7.95;52.92
64668;BME280;51077;42.716;23.344;2023-01-16T15:30:41;94443.22;;;7.81;53.45
64668;BME280;51077;42.716;23.344;2023-01-16T15:33:25;94421.44;;;7.76;53.81
64668;BME280;51077;42.716;23.344;2023-01-16T15:36:22;94443.09;;;7.68;53.74
64668;BME280;51077;42.716;23.344;2023-01-16T15:38:54;94439.19;;;7.64;53.92
64668;BME280;51077;42.716;23.344;2023-01-16T15:41:29;94438.19;;;7.61;54.29
64668;BME280;51077;42.716;23.344;2023-01-16T15:44:37;94445.72;;;7.55;54.54
64668;BME280;51077;42.716;23.344;2023-01-16T15:52:12;94448.06;;;7.45;54.46
64668;BME280;51077;42.716;23.344;2023-01-16T15:54:38;94449.59;;;7.41;54.79
64668;BME280;51077;42.716;23.344;2023-01-16T15:57:03;94459.53;;;7.38;54.90
64668;BME280;51077;42.716;23.344;2023-01-16T15:59:31;94460.03;;;7.37;55.85
64668;BME280;51077;42.716;23.344;2023-01-16T16:02:18;94454.06;;;7.38;56.32
64668;BME280;51077;42.716;23.344;2023-01-16T16:04:44;94461.28;;;7.36;56.50
64668;BME280;51077;42.716;23.344;2023-01-16T16:07:15;94464.31;;;7.32;56.40
64668;BME280;51077;42.716;23.344;2023-01-16T16:09:43;94464.06;;;7.30;56.18